Allbright, Missouri
Current Conditions -  °F | °C
As of 4:15 AM on Friday 19 Dec 2014 (Local Time) from KFAM Reporting Station
Overcast Overcast  
Wind Chill: 30°   Ceiling: 400
Heat Index: 34°   Visibility: 3mi
Dew Point: 28°   Wind: 5mph
Humidity: 81%   Direction: 350°N
Pressure: 30.25"   Gusts: NA
Location:  37.4061°N, 90.1985°W
Report Text: KFAM 191015Z AUTO 35004KT 3SM OVC004 01/M02 A3025 RMK AO1
Loading
Personal Weather Stations






























Interactive Weather Map New forecast layout! Learn more

10-Day Weather Forecast

Advertisements
Track Severe Weather on mobile